Time;durP1;ratioP1;P1;durP2;ratioP2;P2;SDS_P1;SDS_P2;PMS_P1;PMS_P2;Temp;Humidity;BMP_temperature;BMP_pressure;BME280_temperature;BME280_humidity;BME280_pressure;Samples;Min_cycle;Max_cycle;Signal;HPM_P1;HPM_P2
2022/08/25 00:00:11;;;;;;;8.60;5.43;;;;;;;23.55;38.00;101152.37;466355;113;922556;-77
2022/08/25 00:02:09;;;;;;;13.56;5.73;;;;;;;23.54;38.02;101139.57;466213;113;922695;-77
2022/08/25 00:04:09;;;;;;;5.87;4.77;;;;;;;23.50;38.03;101138.48;466317;113;922537;-78
2022/08/25 00:06:06;;;;;;;5.92;5.34;;;;;;;23.49;37.87;101134.04;449676;118;923330;-76
2022/08/25 00:08:01;;;;;;;5.94;5.16;;;;;;;23.47;37.81;101138.24;449383;118;922521;-77
2022/08/25 00:09:55;;;;;;;5.95;5.32;;;;;;;23.45;37.75;101141.27;449361;116;922540;-76
2022/08/25 00:11:50;;;;;;;6.11;5.58;;;;;;;23.43;37.69;101145.48;449423;118;922826;-77
2022/08/25 00:13:48;;;;;;;7.41;5.17;;;;;;;23.40;37.47;101135.73;449321;118;922580;-78
2022/08/25 00:15:45;;;;;;;5.97;4.89;;;;;;;23.38;37.28;101139.91;453283;116;922581;-77
2022/08/25 00:17:40;;;;;;;6.49;5.87;;;;;;;23.36;37.41;101137.44;448216;118;922894;-76
2022/08/25 00:19:38;;;;;;;7.24;5.14;;;;;;;23.35;37.44;101135.77;448162;116;923145;-76
2022/08/25 00:21:33;;;;;;;5.71;5.21;;;;;;;23.34;37.44;101136.05;448199;118;922661;-78
2022/08/25 00:23:29;;;;;;;4.98;4.56;;;;;;;23.31;37.38;101129.13;448156;118;922558;-77
2022/08/25 00:25:25;;;;;;;6.78;5.46;;;;;;;23.29;37.47;101126.61;448167;118;923370;-76
2022/08/25 00:27:20;;;;;;;6.88;6.18;;;;;;;23.29;37.38;101139.69;448204;118;922692;-77
2022/08/25 00:29:15;;;;;;;9.54;6.39;;;;;;;23.27;37.23;101137.19;448120;116;922660;-77
2022/08/25 00:31:00;;;;;;;7.73;5.82;;;;;;;23.27;37.07;101144.70;452289;116;922617;-77
2022/08/25 00:32:04;;;;;;;7.24;5.96;;;;;;;23.25;37.01;101155.30;457064;116;923118;-77
2022/08/25 00:33:07;;;;;;;7.13;5.42;;;;;;;23.24;36.99;101161.98;457209;115;922742;-77
2022/08/25 00:34:17;;;;;;;6.04;5.33;;;;;;;23.24;37.01;101157.25;452367;114;922500;-76
2022/08/25 00:35:21;;;;;;;5.54;5.03;;;;;;;23.25;36.92;101161.70;449279;118;922846;-76
2022/08/25 00:36:27;;;;;;;8.74;5.21;;;;;;;23.25;36.91;101164.48;449323;117;922587;-77
2022/08/25 00:37:30;;;;;;;6.78;4.93;;;;;;;23.27;36.84;101158.61;449269;118;922956;-77
2022/08/25 00:38:33;;;;;;;6.23;4.93;;;;;;;23.28;36.83;101157.50;449485;118;923054;-77
2022/08/25 00:39:38;;;;;;;7.30;4.93;;;;;;;23.30;36.79;101169.19;449535;116;922641;-76
2022/08/25 00:40:42;;;;;;;7.38;5.48;;;;;;;23.31;36.80;101168.08;449304;118;922681;-76
2022/08/25 00:41:47;;;;;;;7.83;6.76;;;;;;;23.33;36.79;101171.39;449442;118;922559;-77
2022/08/25 00:42:50;;;;;;;10.19;7.19;;;;;;;23.34;36.73;101161.92;449435;118;922634;-77
2022/08/25 00:43:57;;;;;;;8.37;6.87;;;;;;;23.35;36.71;101165.55;449500;118;922806;-77
2022/08/25 00:45:00;;;;;;;9.46;7.49;;;;;;;23.35;36.68;101166.38;449337;118;922740;-78
2022/08/25 00:46:04;;;;;;;10.84;8.91;;;;;;;23.37;36.70;101160.53;449407;117;922972;-77
2022/08/25 00:47:08;;;;;;;26.21;17.56;;;;;;;23.38;36.70;101160.23;449328;118;930435;-77
2022/08/25 00:48:12;;;;;;;31.39;19.95;;;;;;;23.39;36.69;101173.03;449442;118;922675;-77
2022/08/25 00:49:37;;;;;;;39.97;23.65;;;;;;;23.40;36.75;101163.57;449409;116;922719;-76
2022/08/25 00:50:40;;;;;;;52.65;28.24;;;;;;;23.41;36.69;101169.97;449341;118;922705;-77
2022/08/25 00:51:54;;;;;;;56.28;29.08;;;;;;;23.40;36.69;101166.35;449405;118;922654;-77
2022/08/25 00:53:02;;;;;;;58.43;31.16;;;;;;;23.40;36.72;101166.35;449315;117;922592;-76
2022/08/25 00:54:07;;;;;;;56.85;32.26;;;;;;;23.40;36.68;101171.92;449309;116;922546;-76
2022/08/25 00:55:14;;;;;;;55.87;30.12;;;;;;;23.40;36.68;101162.73;449353;118;922615;-77
2022/08/25 00:56:19;;;;;;;62.78;32.12;;;;;;;23.39;36.72;101164.68;449319;117;922779;-76
2022/08/25 00:57:31;;;;;;;63.89;33.54;;;;;;;23.40;36.68;101166.35;449376;118;922636;-76
2022/08/25 00:58:37;;;;;;;60.53;31.91;;;;;;;23.39;36.67;101167.47;449268;117;922979;-76
2022/08/25 00:59:43;;;;;;;56.51;29.90;;;;;;;23.40;36.66;101171.08;449271;116;922795;-75
2022/08/25 01:00:51;;;;;;;56.71;30.10;;;;;;;23.39;36.66;101164.68;449290;118;922789;-76
2022/08/25 01:01:55;;;;;;;51.87;29.79;;;;;;;23.40;36.61;101165.52;449298;118;922533;-76
2022/08/25 01:02:59;;;;;;;43.60;25.93;;;;;;;23.39;36.65;101164.68;449313;118;922601;-77
2022/08/25 01:04:03;;;;;;;46.51;26.31;;;;;;;23.39;36.67;101163.84;449437;116;922546;-77
2022/08/25 01:05:07;;;;;;;48.25;28.21;;;;;;;23.39;36.76;101169.41;455583;116;930180;-76
2022/08/25 01:06:10;;;;;;;48.99;26.10;;;;;;;23.38;36.78;101163.01;457253;115;922552;-75
2022/08/25 01:07:15;;;;;;;36.08;22.91;;;;;;;23.38;36.79;101159.39;457260;116;922590;-77
2022/08/25 01:08:25;;;;;;;39.68;23.39;;;;;;;23.38;36.82;101162.17;457155;116;922769;-77
2022/08/25 01:09:31;;;;;;;39.12;21.83;;;;;;;23.37;36.84;101168.89;456952;116;922757;-77
2022/08/25 01:10:40;;;;;;;31.17;22.94;;;;;;;23.35;36.84;101166.38;457177;115;930592;-77
2022/08/25 01:11:45;;;;;;;40.88;23.81;;;;;;;23.35;36.85;101163.59;457213;116;923062;-76
2022/08/25 01:12:51;;;;;;;40.36;22.17;;;;;;;23.35;36.86;101174.73;449309;118;923135;-76
2022/08/25 01:13:56;;;;;;;33.84;21.90;;;;;;;23.35;36.89;101169.16;449267;116;922677;-77
2022/08/25 01:15:01;;;;;;;34.73;22.28;;;;;;;23.34;36.89;101167.49;449561;116;922694;-77
2022/08/25 01:16:04;;;;;;;35.17;21.72;;;;;;;23.35;36.94;101168.33;457107;116;922743;-77
2022/08/25 01:17:08;;;;;;;36.11;21.30;;;;;;;23.34;36.94;101170.27;457250;116;923053;-76
2022/08/25 01:18:12;;;;;;;30.76;20.46;;;;;;;23.34;36.94;101170.27;457202;116;922605;-77
2022/08/25 01:19:15;;;;;;;36.04;22.61;;;;;;;23.34;36.94;101173.05;457085;116;930968;-77
2022/08/25 01:20:21;;;;;;;35.07;21.82;;;;;;;23.34;36.94;101173.05;457133;116;930576;-76
2022/08/25 01:21:30;;;;;;;33.12;21.90;;;;;;;23.32;36.95;101169.75;456630;116;922895;-78
2022/08/25 01:22:33;;;;;;;31.17;21.81;;;;;;;23.31;36.99;101173.64;457095;116;922966;-77
2022/08/25 01:23:37;;;;;;;26.62;19.92;;;;;;;23.31;37.00;101175.59;457202;116;923116;-76
2022/08/25 01:24:53;;;;;;;28.11;18.88;;;;;;;23.30;37.03;101180.32;457160;116;922631;-76
2022/08/25 01:26:12;;;;;;;24.83;18.78;;;;;;;23.29;37.08;101173.08;456757;116;922599;-77
2022/08/25 01:27:15;;;;;;;33.01;18.95;;;;;;;23.28;37.05;101179.76;457052;116;923124;-77
2022/08/25 01:28:20;;;;;;;22.52;18.65;;;;;;;23.27;37.08;101167.80;457169;116;922528;-76
2022/08/25 01:29:26;;;;;;;26.86;19.53;;;;;;;23.25;37.10;101170.05;456989;116;930550;-76
2022/08/25 01:30:30;;;;;;;22.91;17.72;;;;;;;23.25;37.10;101175.61;449269;115;922585;-76
2022/08/25 01:31:35;;;;;;;31.49;18.04;;;;;;;23.24;37.15;101175.89;457423;115;923039;-76
2022/08/25 01:32:39;;;;;;;20.59;16.05;;;;;;;23.23;37.19;101172.27;457155;116;923172;-77
2022/08/25 01:33:42;;;;;;;22.07;16.06;;;;;;;23.22;37.17;101173.38;457268;114;922754;-76
2022/08/25 01:34:45;;;;;;;20.89;15.11;;;;;;;23.22;37.18;101181.73;457115;114;930511;-77
2022/08/25 01:35:49;;;;;;;24.12;15.45;;;;;;;23.21;37.14;101171.71;457227;116;922617;-76
2022/08/25 01:36:54;;;;;;;18.58;15.87;;;;;;;23.21;37.13;101174.49;457182;115;922624;-77
2022/08/25 01:37:58;;;;;;;24.94;16.83;;;;;;;23.20;37.11;101177.58;457085;115;930577;-76
2022/08/25 01:39:02;;;;;;;25.93;17.44;;;;;;;23.19;37.16;101175.91;457112;114;930555;-78
2022/08/25 01:40:06;;;;;;;30.18;21.62;;;;;;;23.18;37.20;101177.86;457192;115;922639;-77
2022/08/25 01:41:09;;;;;;;40.22;24.36;;;;;;;23.17;37.23;101176.19;457175;116;922629;-77
2022/08/25 01:42:20;;;;;;;47.81;27.48;;;;;;;23.16;37.16;101171.73;457227;115;922938;-77
2022/08/25 01:43:32;;;;;;;56.18;30.87;;;;;;;23.15;37.20;101175.66;438408;120;923368;-77
2022/08/25 01:44:45;;;;;;;55.87;29.83;;;;;;;23.25;37.17;101181.18;482345;110;947166;-77
2022/08/25 01:45:48;;;;;;;55.24;30.29;;;;;;;23.14;37.18;101173.98;473710;112;922622;-76
2022/08/25 01:46:52;;;;;;;51.81;30.23;;;;;;;23.13;37.21;101183.45;473824;112;922528;-78
2022/08/25 01:47:55;;;;;;;51.31;30.96;;;;;;;23.11;37.25;101168.98;473839;112;930517;-76
2022/08/25 01:49:00;;;;;;;53.61;29.92;;;;;;;23.10;37.25;101177.62;473815;112;922668;-77
2022/08/25 01:50:06;;;;;;;52.03;31.05;;;;;;;23.09;37.30;101176.80;473294;112;922774;-77
2022/08/25 01:51:10;;;;;;;58.29;32.78;;;;;;;23.07;37.39;101173.45;473888;112;922915;-77
2022/08/25 01:52:29;;;;;;;66.97;33.59;;;;;;;23.06;37.48;101177.34;473875;112;922604;-77
2022/08/25 01:53:32;;;;;;;55.41;31.77;;;;;;;23.04;37.42;101179.59;473674;112;928767;-75
2022/08/25 01:54:36;;;;;;;58.35;31.46;;;;;;;23.03;37.58;101177.92;473837;112;922940;-76
2022/08/25 01:55:52;;;;;;;59.27;32.57;;;;;;;23.01;37.73;101180.14;473914;112;922661;-77
2022/08/25 01:56:58;;;;;;;53.92;28.48;;;;;;;23.01;37.75;101165.40;473779;112;922543;-76
2022/08/25 01:58:01;;;;;;;50.52;28.56;;;;;;;22.98;37.91;101172.37;473873;112;922528;-77
2022/08/25 01:59:04;;;;;;;45.12;29.18;;;;;;;22.98;37.99;101174.32;473959;112;922537;-76
2022/08/25 02:00:12;;;;;;;43.78;27.39;;;;;;;22.98;38.08;101171.55;473863;112;923268;-76
2022/08/25 02:01:19;;;;;;;40.81;25.12;;;;;;;22.96;38.13;101177.38;473677;112;930280;-77
2022/08/25 02:02:22;;;;;;;38.12;24.62;;;;;;;22.96;38.29;101179.33;473336;112;923293;-76
2022/08/25 02:03:28;;;;;;;44.95;25.51;;;;;;;22.94;38.35;101179.59;473744;112;922558;-75
2022/08/25 02:04:31;;;;;;;51.82;25.32;;;;;;;22.93;38.54;101171.56;472046;112;922608;-77
2022/08/25 02:05:37;;;;;;;38.26;23.63;;;;;;;22.92;38.55;101162.37;465373;114;922528;-78
2022/08/25 02:06:41;;;;;;;40.22;23.85;;;;;;;22.91;38.60;101173.78;465415;114;922658;-79
2022/08/25 02:07:45;;;;;;;36.31;23.86;;;;;;;22.88;38.62;101169.60;465502;114;922693;-76
2022/08/25 02:08:54;;;;;;;37.76;23.19;;;;;;;22.86;38.59;101167.12;465431;114;922665;-78
2022/08/25 02:09:58;;;;;;;37.18;22.61;;;;;;;22.86;38.58;101171.84;465375;114;922544;-76
2022/08/25 02:11:04;;;;;;;35.62;23.00;;;;;;;22.84;38.62;101172.13;465115;114;922635;-76
2022/08/25 02:12:08;;;;;;;33.41;21.14;;;;;;;22.82;38.64;101174.34;465481;114;923024;-77
2022/08/25 02:13:12;;;;;;;31.69;21.81;;;;;;;22.82;38.65;101168.78;465481;113;923073;-77
2022/08/25 02:14:18;;;;;;;31.02;21.94;;;;;;;22.80;38.73;101179.37;465332;114;923090;-76
2022/08/25 02:15:22;;;;;;;35.38;21.33;;;;;;;22.80;38.79;101184.93;465370;114;922649;-76
2022/08/25 02:16:29;;;;;;;33.58;20.62;;;;;;;22.79;38.84;101177.70;465527;114;923102;-77
2022/08/25 02:17:35;;;;;;;38.38;21.96;;;;;;;22.78;38.88;101181.59;465387;114;922570;-76
2022/08/25 02:18:38;;;;;;;33.44;20.43;;;;;;;22.78;38.92;101187.15;465365;114;922739;-77
2022/08/25 02:19:42;;;;;;;31.24;19.94;;;;;;;22.75;38.94;101182.16;465507;114;922884;-76
2022/08/25 02:20:46;;;;;;;28.18;20.92;;;;;;;22.73;39.00;101186.33;465519;114;922914;-76
2022/08/25 02:21:49;;;;;;;32.75;20.82;;;;;;;22.71;39.07;101188.54;465455;114;923238;-76
2022/08/25 02:22:53;;;;;;;29.25;20.57;;;;;;;22.69;39.15;101186.03;465495;114;922913;-76
2022/08/25 02:23:59;;;;;;;28.99;20.19;;;;;;;22.68;39.18;101189.92;465328;113;923574;-76
2022/08/25 02:25:05;;;;;;;31.61;20.24;;;;;;;22.68;39.23;101191.87;465403;114;922734;-76
2022/08/25 02:26:09;;;;;;;33.77;20.46;;;;;;;22.66;39.27;101199.67;465342;114;922576;-77
2022/08/25 02:27:12;;;;;;;30.73;19.75;;;;;;;22.64;39.31;101202.72;465486;114;922617;-77
2022/08/25 02:28:15;;;;;;;25.14;19.52;;;;;;;22.62;39.28;101191.04;465539;114;922846;-77
2022/08/25 02:29:19;;;;;;;25.50;19.21;;;;;;;22.61;39.29;101200.48;465479;114;922576;-77
2022/08/25 02:30:22;;;;;;;27.84;19.78;;;;;;;22.60;39.30;101198.01;465468;114;922494;-77
2022/08/25 02:31:26;;;;;;;27.19;19.42;;;;;;;22.59;39.36;101199.11;465475;114;922546;-77
2022/08/25 02:32:30;;;;;;;27.83;19.05;;;;;;;22.57;39.38;101201.33;465408;114;930412;-76
2022/08/25 02:33:33;;;;;;;27.64;18.84;;;;;;;22.56;39.47;101194.09;465502;112;930421;-77
2022/08/25 02:34:36;;;;;;;25.69;18.48;;;;;;;22.55;39.49;101198.82;465571;114;922578;-77
2022/08/25 02:35:39;;;;;;;28.69;19.82;;;;;;;22.52;39.50;101193.83;465555;114;922996;-76
2022/08/25 02:36:43;;;;;;;29.49;19.49;;;;;;;22.51;39.58;101203.28;465456;114;922499;-77
2022/08/25 02:37:46;;;;;;;23.39;17.81;;;;;;;22.51;39.61;101194.10;465544;114;927558;-77
2022/08/25 02:38:49;;;;;;;24.06;18.11;;;;;;;22.51;39.68;101200.50;465584;114;923037;-77
2022/08/25 02:39:53;;;;;;;30.24;18.87;;;;;;;22.50;39.68;101193.27;465777;114;922794;-77
2022/08/25 02:40:57;;;;;;;27.87;19.11;;;;;;;22.50;39.66;101204.38;465480;114;930209;-78
2022/08/25 02:42:00;;;;;;;30.99;20.68;;;;;;;22.50;39.69;101207.16;465492;114;923513;-78
2022/08/25 02:43:04;;;;;;;29.21;19.08;;;;;;;22.50;39.67;101200.77;465534;114;922737;-77
2022/08/25 02:44:08;;;;;;;27.11;19.08;;;;;;;22.49;39.65;101205.52;465373;114;922647;-76
2022/08/25 02:45:11;;;;;;;38.36;23.66;;;;;;;22.50;39.72;101204.38;465446;114;922869;-77
2022/08/25 02:46:18;;;;;;;33.92;22.10;;;;;;;22.51;39.67;101200.50;465435;114;930528;-78
2022/08/25 02:47:22;;;;;;;53.63;29.82;;;;;;;22.52;39.69;101207.73;465333;114;922767;-77
2022/08/25 02:48:27;;;;;;;57.76;30.30;;;;;;;22.51;39.70;101205.22;464980;114;922509;-77
2022/08/25 02:49:30;;;;;;;44.14;25.88;;;;;;;22.51;39.63;101202.44;465483;114;922791;-77
2022/08/25 02:50:34;;;;;;;50.89;27.85;;;;;;;22.50;39.70;101207.16;465475;114;922565;-78
2022/08/25 02:51:37;;;;;;;46.91;26.74;;;;;;;22.50;39.70;101206.33;465561;114;922580;-75
2022/08/25 02:52:41;;;;;;;43.76;26.96;;;;;;;22.51;39.72;101208.84;465474;114;923057;-77
2022/08/25 02:53:47;;;;;;;48.74;27.72;;;;;;;22.51;39.67;101208.00;465520;114;930095;-75
2022/08/25 02:54:50;;;;;;;46.09;27.04;;;;;;;22.51;39.70;101208.84;465346;114;922554;-76
2022/08/25 02:55:54;;;;;;;56.22;27.49;;;;;;;22.51;39.75;101206.06;465465;114;922509;-75
2022/08/25 02:56:58;;;;;;;48.18;26.94;;;;;;;22.50;39.75;101207.16;465390;114;922536;-76
2022/08/25 02:58:01;;;;;;;46.62;26.99;;;;;;;22.49;39.67;101205.52;465372;114;922628;-76
2022/08/25 02:59:05;;;;;;;46.28;24.72;;;;;;;22.46;39.69;101203.28;465304;114;922525;-76
2022/08/25 03:00:11;;;;;;;39.78;22.96;;;;;;;22.45;39.76;101207.17;465291;114;923200;-76
2022/08/25 03:01:15;;;;;;;45.63;23.86;;;;;;;22.46;39.72;101217.18;465108;114;930470;-76
2022/08/25 03:02:19;;;;;;;38.06;22.89;;;;;;;22.44;39.72;101206.33;465311;114;922438;-77
2022/08/25 03:03:22;;;;;;;40.84;22.79;;;;;;;22.45;39.75;101212.73;465497;114;922989;-76
2022/08/25 03:04:52;;;;;;;33.10;20.91;;;;;;;22.45;39.73;101216.34;465381;114;922678;-77
2022/08/25 03:05:57;;;;;;;39.68;21.61;;;;;;;22.45;39.62;101208.00;465225;114;922569;-78
2022/08/25 03:07:02;;;;;;;30.32;18.99;;;;;;;22.43;39.73;101201.91;465386;114;922589;-77
2022/08/25 03:08:06;;;;;;;29.38;17.94;;;;;;;22.43;39.79;101206.63;465269;114;922630;-77
2022/08/25 03:09:09;;;;;;;28.38;17.96;;;;;;;22.43;39.74;101207.47;465242;114;923497;-77
2022/08/25 03:10:17;;;;;;;26.13;16.74;;;;;;;22.42;39.78;101214.14;465308;114;923501;-77
2022/08/25 03:11:21;;;;;;;24.60;16.96;;;;;;;22.44;39.74;101206.33;465207;114;922618;-77
2022/08/25 03:12:26;;;;;;;21.69;16.10;;;;;;;22.45;39.62;101209.95;465341;114;922776;-77
2022/08/25 03:13:29;;;;;;;25.21;15.92;;;;;;;22.46;39.58;101206.06;465164;114;930399;-77
2022/08/25 03:14:32;;;;;;;22.49;15.10;;;;;;;22.46;39.50;101208.84;465264;114;930456;-78
2022/08/25 03:15:41;;;;;;;26.72;16.51;;;;;;;22.48;39.34;101214.13;465317;114;922517;-77
2022/08/25 03:16:45;;;;;;;24.36;15.75;;;;;;;22.48;39.27;101203.85;465228;114;923126;-76
2022/08/25 03:17:49;;;;;;;24.25;14.94;;;;;;;22.49;39.16;101213.02;465330;114;922560;-74
2022/08/25 03:18:53;;;;;;;28.06;17.73;;;;;;;22.49;39.11;101215.80;465354;114;922716;-77
2022/08/25 03:19:57;;;;;;;22.97;16.46;;;;;;;22.48;39.10;101212.19;465266;114;923564;-76
2022/08/25 03:21:02;;;;;;;27.29;17.66;;;;;;;22.49;38.97;101207.47;465283;114;922662;-77
2022/08/25 03:22:05;;;;;;;29.95;19.28;;;;;;;22.48;39.01;101212.19;465270;114;922646;-76
2022/08/25 03:23:08;;;;;;;31.90;19.82;;;;;;;22.49;39.24;101213.02;465310;114;930420;-78
2022/08/25 03:24:11;;;;;;;34.21;20.23;;;;;;;22.49;39.24;101213.02;465396;114;922560;-76
2022/08/25 03:26:53;;;;;;;30.14;22.32;;;;;;;22.48;38.87;101216.91;465211;114;922766;-77
2022/08/25 03:27:57;;;;;;;41.87;24.37;;;;;;;22.48;38.87;101219.69;465215;114;922802;-77
2022/08/25 03:29:03;;;;;;;48.41;24.61;;;;;;;22.46;38.87;101218.02;465313;114;922577;-77
2022/08/25 03:30:06;;;;;;;48.52;26.07;;;;;;;22.46;38.95;101222.73;465152;114;930278;-77
2022/08/25 03:31:10;;;;;;;46.08;26.49;;;;;;;22.45;38.95;101219.13;465356;113;922568;-77
2022/08/25 03:32:13;;;;;;;53.91;27.19;;;;;;;22.45;38.87;101223.84;465412;114;922563;-77
2022/08/25 03:33:16;;;;;;;56.74;27.09;;;;;;;22.45;38.95;101221.06;465372;114;923067;-74
2022/08/25 03:34:20;;;;;;;44.98;26.74;;;;;;;22.45;38.88;101221.06;465415;112;922578;-76
2022/08/25 03:35:24;;;;;;;42.92;26.14;;;;;;;22.46;38.87;101225.52;465445;114;922511;-77
2022/08/25 03:36:27;;;;;;;44.48;25.84;;;;;;;22.45;38.92;101221.06;465619;114;929899;-75
2022/08/25 03:37:30;;;;;;;51.50;25.90;;;;;;;22.45;38.92;101224.68;465539;114;923179;-76
2022/08/25 03:38:37;;;;;;;47.87;27.76;;;;;;;22.45;38.96;101221.06;465705;114;922646;-77
2022/08/25 03:39:39;;;;;;;51.17;26.91;;;;;;;22.46;38.98;101217.18;465468;114;922953;-75
2022/08/25 03:40:42;;;;;;;47.19;26.30;;;;;;;22.46;38.98;101225.52;465709;114;922895;-76
2022/08/25 03:41:46;;;;;;;49.24;27.13;;;;;;;22.45;38.95;101223.84;465666;114;922968;-76
2022/08/25 03:42:49;;;;;;;52.42;26.55;;;;;;;22.44;38.96;101214.67;465572;114;922663;-76
2022/08/25 03:43:53;;;;;;;42.58;25.14;;;;;;;22.44;39.15;101222.17;465559;114;930180;-77
2022/08/25 03:44:56;;;;;;;46.47;25.89;;;;;;;22.44;39.15;101222.17;463931;114;922725;-77
2022/08/25 03:45:59;;;;;;;47.72;26.24;;;;;;;22.44;39.03;101217.45;460899;115;930617;-76
2022/08/25 03:47:02;;;;;;;44.09;24.51;;;;;;;22.44;39.04;101216.61;460808;115;922474;-76
2022/08/25 03:48:05;;;;;;;42.13;24.16;;;;;;;22.44;39.08;101213.83;460789;115;922448;-76
2022/08/25 03:49:12;;;;;;;39.85;24.87;;;;;;;22.44;39.03;101211.89;460786;115;922546;-77
2022/08/25 03:50:17;;;;;;;38.49;23.52;;;;;;;22.45;39.07;101219.13;460590;115;923012;-77
2022/08/25 03:51:29;;;;;;;35.83;21.66;;;;;;;22.45;39.08;101215.51;460580;115;922562;-77
2022/08/25 03:52:32;;;;;;;34.65;21.82;;;;;;;22.46;39.11;101208.84;460633;115;922573;-78
2022/08/25 03:53:36;;;;;;;30.15;20.52;;;;;;;22.46;39.10;101217.18;460853;115;922549;-77
2022/08/25 03:54:39;;;;;;;35.63;19.74;;;;;;;22.46;39.12;101212.45;460792;115;923063;-77
2022/08/25 03:55:42;;;;;;;24.84;17.81;;;;;;;22.46;39.05;101208.84;460796;115;922572;-78
2022/08/25 03:56:45;;;;;;;25.32;17.17;;;;;;;22.48;39.12;101214.97;460803;115;922998;-79
2022/08/25 03:57:50;;;;;;;19.44;15.43;;;;;;;22.48;39.10;101211.35;460768;115;922913;-77
2022/08/25 03:58:54;;;;;;;19.59;16.43;;;;;;;22.48;39.08;101209.41;460581;115;923153;-77
2022/08/25 03:59:57;;;;;;;21.70;16.38;;;;;;;22.48;39.10;101211.35;460690;115;922921;-77
2022/08/25 04:01:00;;;;;;;17.16;15.08;;;;;;;22.48;39.11;101214.13;459881;113;922566;-78
2022/08/25 04:02:05;;;;;;;19.16;16.71;;;;;;;22.47;39.12;101213.30;458282;115;922593;-77
2022/08/25 04:03:10;;;;;;;23.31;15.47;;;;;;;22.48;39.08;101214.13;458059;115;922631;-77
2022/08/25 04:04:15;;;;;;;18.38;14.34;;;;;;;22.47;39.05;101216.08;458124;115;922571;-78
2022/08/25 04:05:19;;;;;;;19.18;14.50;;;;;;;22.47;39.08;101213.30;460677;115;922580;-78
2022/08/25 04:06:23;;;;;;;18.79;13.59;;;;;;;22.47;39.09;101210.52;460970;115;922500;-77
2022/08/25 04:07:27;;;;;;;15.54;10.53;;;;;;;22.48;39.11;101220.53;461332;115;922663;-77
2022/08/25 04:08:31;;;;;;;13.96;10.91;;;;;;;22.47;39.06;101218.85;461325;115;922587;-78
2022/08/25 04:09:37;;;;;;;11.56;9.78;;;;;;;22.47;39.00;101216.08;460704;115;922622;-77
2022/08/25 04:10:40;;;;;;;15.81;11.10;;;;;;;22.49;38.96;101218.58;460823;115;922649;-77
2022/08/25 04:11:43;;;;;;;12.73;10.21;;;;;;;22.48;38.93;101219.69;460850;115;922633;-77
2022/08/25 04:12:48;;;;;;;10.92;9.94;;;;;;;22.49;38.95;101215.80;460813;115;922612;-77
2022/08/25 04:13:52;;;;;;;12.57;9.56;;;;;;;22.48;39.34;101220.53;460695;115;922621;-76
2022/08/25 04:14:56;;;;;;;14.18;10.06;;;;;;;22.48;39.34;101220.53;460575;115;922533;-76
2022/08/25 04:16:00;;;;;;;12.08;10.81;;;;;;;22.49;38.92;101215.80;460669;115;922993;-76
2022/08/25 04:17:03;;;;;;;13.35;10.38;;;;;;;22.48;38.95;101212.19;460797;115;922524;-77
2022/08/25 04:18:06;;;;;;;14.47;10.43;;;;;;;22.48;38.99;101209.41;460737;115;922557;-77
2022/08/25 04:19:11;;;;;;;11.32;9.89;;;;;;;22.49;39.07;101219.42;460762;115;927304;-76
2022/08/25 04:20:14;;;;;;;13.62;9.58;;;;;;;22.50;39.03;101212.72;460634;115;923000;-77
2022/08/25 04:21:19;;;;;;;9.13;8.28;;;;;;;22.51;39.09;101208.00;460758;115;922932;-77
2022/08/25 04:22:23;;;;;;;10.61;8.53;;;;;;;22.51;39.11;101208.84;460585;115;923326;-76
2022/08/25 04:23:26;;;;;;;7.89;7.17;;;;;;;22.52;39.07;101207.73;460783;115;922613;-77
2022/08/25 04:24:29;;;;;;;10.27;8.79;;;;;;;22.53;39.14;101209.41;460734;115;922509;-77
2022/08/25 04:25:33;;;;;;;11.86;7.92;;;;;;;22.55;39.07;101206.36;460744;115;922516;-77
2022/08/25 04:26:43;;;;;;;15.09;7.60;;;;;;;22.55;39.04;101206.36;460708;115;922835;-76
2022/08/25 04:27:46;;;;;;;10.60;7.70;;;;;;;22.56;39.06;101205.22;460476;115;930778;-76
2022/08/25 04:28:49;;;;;;;9.06;7.90;;;;;;;22.57;39.12;101204.11;460747;115;922551;-77
2022/08/25 04:29:52;;;;;;;8.93;8.04;;;;;;;22.59;39.18;101205.52;463315;113;922630;-77
2022/08/25 04:30:56;;;;;;;7.59;6.82;;;;;;;22.60;39.19;101207.18;464626;113;922541;-78
2022/08/25 04:31:59;;;;;;;8.26;7.09;;;;;;;22.63;39.18;101200.22;460835;115;922940;-77
2022/08/25 04:33:02;;;;;;;7.89;6.61;;;;;;;22.65;39.26;101203.56;460767;115;923233;-77
2022/08/25 04:34:06;;;;;;;11.15;8.10;;;;;;;22.66;39.16;101196.89;464913;113;922571;-77
2022/08/25 04:35:11;;;;;;;9.19;7.32;;;;;;;22.68;39.15;101202.98;466019;113;922545;-76
2022/08/25 04:36:18;;;;;;;9.71;7.94;;;;;;;22.69;39.19;101199.94;468769;113;922891;-78
2022/08/25 04:37:21;;;;;;;10.39;9.09;;;;;;;22.71;39.11;101206.09;468751;113;922886;-77
2022/08/25 04:38:24;;;;;;;12.25;8.30;;;;;;;22.72;39.04;101196.61;468957;113;922674;-77
2022/08/25 04:39:28;;;;;;;13.37;9.05;;;;;;;22.73;39.03;101192.72;468893;113;922539;-76
2022/08/25 04:40:32;;;;;;;11.34;8.59;;;;;;;22.74;38.97;101201.90;468844;113;922757;-77
2022/08/25 04:41:35;;;;;;;9.19;8.26;;;;;;;22.75;39.04;101196.06;468965;113;923078;-78
2022/08/25 04:42:38;;;;;;;9.67;8.65;;;;;;;22.76;38.93;101197.73;468966;113;922937;-76
2022/08/25 04:43:43;;;;;;;9.47;8.57;;;;;;;22.77;38.92;101201.36;468942;113;922813;-76
2022/08/25 04:44:46;;;;;;;11.08;8.59;;;;;;;22.77;38.84;101198.58;468764;113;923092;-77
2022/08/25 04:45:49;;;;;;;10.13;8.36;;;;;;;22.78;38.82;101203.00;468161;113;922863;-78
2022/08/25 04:46:52;;;;;;;9.80;7.33;;;;;;;22.78;38.83;101195.48;467933;113;922599;-77
2022/08/25 04:47:59;;;;;;;9.38;6.62;;;;;;;22.79;38.79;101199.11;467906;113;922549;-78
2022/08/25 04:49:01;;;;;;;8.48;6.56;;;;;;;22.79;38.75;101197.16;467749;113;922590;-77
2022/08/25 04:50:06;;;;;;;11.43;7.01;;;;;;;22.82;38.73;101195.78;467836;113;923720;-78
2022/08/25 04:51:12;;;;;;;7.59;6.09;;;;;;;22.82;38.73;101195.78;467751;113;930611;-76
2022/08/25 04:52:15;;;;;;;7.24;5.71;;;;;;;22.82;38.74;101199.36;467106;113;923660;-78
2022/08/25 04:53:20;;;;;;;5.99;5.11;;;;;;;22.84;38.76;101197.15;467956;113;922603;-77
2022/08/25 04:54:23;;;;;;;8.19;5.69;;;;;;;22.85;38.70;101198.82;467838;113;922606;-77
2022/08/25 04:55:27;;;;;;;8.11;5.79;;;;;;;22.86;38.68;101188.53;467941;113;922566;-77
2022/08/25 04:56:32;;;;;;;5.66;5.03;;;;;;;22.88;38.68;101193.82;467905;113;922611;-78
2022/08/25 04:57:36;;;;;;;5.26;4.18;;;;;;;22.89;38.73;101193.52;472000;112;923050;-77
2022/08/25 04:58:40;;;;;;;5.88;4.26;;;;;;;22.91;38.69;101193.25;473790;112;922572;-78
2022/08/25 04:59:43;;;;;;;5.01;3.66;;;;;;;22.93;38.63;101189.08;473743;112;923099;-76
2022/08/25 05:00:46;;;;;;;4.93;3.79;;;;;;;22.93;38.59;101191.86;473777;112;923109;-77
2022/08/25 05:01:50;;;;;;;4.10;3.46;;;;;;;22.93;38.71;101191.86;473803;112;922546;-79
2022/08/25 05:02:54;;;;;;;7.92;3.48;;;;;;;22.95;38.57;101189.61;473651;112;923197;-77
2022/08/25 05:04:00;;;;;;;4.84;3.27;;;;;;;22.96;38.53;101187.66;473777;112;930498;-78
2022/08/25 05:05:04;;;;;;;6.87;3.33;;;;;;;22.98;38.51;101191.02;467307;112;922701;-77
2022/08/25 05:06:09;;;;;;;5.07;3.02;;;;;;;23.00;38.52;101183.20;464874;114;923262;-78
2022/08/25 05:07:13;;;;;;;4.84;3.02;;;;;;;23.02;38.57;101195.72;464543;114;923524;-77